Time;durP1;ratioP1;P1;durP2;ratioP2;P2;SDS_P1;SDS_P2;PMS_P1;PMS_P2;Temp;Humidity;BMP_temperature;BMP_pressure;BME280_temperature;BME280_humidity;BME280_pressure;Samples;Min_cycle;Max_cycle;Signal;HPM_P1;HPM_P2
2022/09/25 00:01:23;;;;;;;8.43;2.22;;;;;;;11.43;93.05;101496.75;5037913;28;20603;-80
2022/09/25 00:03:49;;;;;;;9.20;2.45;;;;;;;11.39;93.20;101493.44;5036918;28;20051;-80
2022/09/25 00:06:18;;;;;;;10.35;2.30;;;;;;;11.38;93.12;101490.88;5036653;28;20079;-82
2022/09/25 00:08:44;;;;;;;11.10;2.45;;;;;;;11.35;93.65;101493.75;5036806;28;20457;-79
2022/09/25 00:11:22;;;;;;;12.27;2.55;;;;;;;11.31;93.61;101501.09;5037474;28;20026;-79
2022/09/25 00:13:49;;;;;;;8.38;2.70;;;;;;;11.29;93.51;101506.53;5036794;28;20033;-80
2022/09/25 00:16:17;;;;;;;10.73;2.67;;;;;;;11.20;94.03;101496.50;5036286;28;20076;-79
2022/09/25 00:21:29;;;;;;;5.53;2.33;;;;;;;11.21;93.58;101503.53;5036268;28;20041;-81
2022/09/25 00:23:56;;;;;;;6.77;2.53;;;;;;;11.16;93.41;101511.00;5036217;28;20032;-80
2022/09/25 00:26:21;;;;;;;7.65;2.28;;;;;;;11.14;93.69;101506.72;5036091;28;20033;-79
2022/09/25 00:28:47;;;;;;;5.85;2.47;;;;;;;11.11;93.27;101505.13;5036337;28;20033;-80
2022/09/25 00:31:18;;;;;;;8.23;3.00;;;;;;;11.10;93.69;101501.59;5021152;28;20026;-80
2022/09/25 00:33:43;;;;;;;8.18;2.67;;;;;;;11.10;93.35;101500.75;5016447;28;20026;-80
2022/09/25 00:36:09;;;;;;;12.70;3.03;;;;;;;11.05;92.92;101497.56;5015937;28;20030;-81
2022/09/25 00:38:37;;;;;;;8.35;2.40;;;;;;;11.06;94.09;101512.56;5029924;28;20083;-81
2022/09/25 00:41:05;;;;;;;10.38;2.25;;;;;;;11.04;93.73;101509.16;5035798;28;20025;-81
2022/09/25 00:43:40;;;;;;;9.63;2.42;;;;;;;11.01;93.79;101504.91;5035716;28;20056;-80
2022/09/25 00:46:35;;;;;;;11.02;2.65;;;;;;;11.01;93.32;101498.75;5035696;28;20034;-81
2022/09/25 00:49:14;;;;;;;8.82;2.60;;;;;;;10.97;93.37;101499.91;5042844;28;20452;-81
2022/09/25 00:51:52;;;;;;;11.60;2.63;;;;;;;10.95;94.10;101497.34;5085404;22;20042;-48
2022/09/25 00:54:24;;;;;;;7.68;2.13;;;;;;;10.86;94.21;101501.47;5028719;28;20442;-50
2022/09/25 00:56:51;;;;;;;8.20;2.33;;;;;;;10.84;94.94;101498.06;5033921;28;20033;-48
2022/09/25 00:59:21;;;;;;;9.95;2.38;;;;;;;10.82;94.40;101499.97;5030945;28;20479;-51
2022/09/25 01:01:47;;;;;;;6.90;2.30;;;;;;;10.79;94.57;101501.97;5031153;28;20053;-48
2022/09/25 01:04:13;;;;;;;9.30;2.75;;;;;;;10.80;94.95;101509.00;5033415;28;20106;-49
2022/09/25 01:06:40;;;;;;;15.20;2.58;;;;;;;10.74;95.28;101507.59;5032500;28;20403;-48
2022/09/25 01:09:06;;;;;;;9.20;2.45;;;;;;;10.76;94.95;101503.06;5030917;28;20112;-47
2022/09/25 01:11:31;;;;;;;7.72;2.13;;;;;;;10.74;95.10;101513.78;5031832;28;20128;-51
2022/09/25 01:14:00;;;;;;;11.10;2.40;;;;;;;10.73;95.57;101511.22;5022789;28;20048;-48
2022/09/25 01:16:36;;;;;;;9.55;2.33;;;;;;;10.73;94.59;101508.56;5027074;28;20045;-48
2022/09/25 01:19:10;;;;;;;9.63;2.55;;;;;;;10.67;94.09;101512.47;5030517;28;20063;-48
2022/09/25 01:21:42;;;;;;;8.35;2.17;;;;;;;10.64;94.52;101511.81;5037200;28;20128;-48
2022/09/25 01:24:46;;;;;;;8.93;2.40;;;;;;;10.64;94.30;101518.00;5025963;28;20079;-49
2022/09/25 01:27:22;;;;;;;8.20;2.22;;;;;;;10.59;93.59;101509.50;5031915;28;20357;-49
2022/09/25 01:29:56;;;;;;;9.95;2.20;;;;;;;10.53;94.33;101518.69;5030380;28;20033;-49
2022/09/25 01:32:29;;;;;;;12.35;3.00;;;;;;;10.48;94.60;101514.66;5037441;28;20306;-50
2022/09/25 01:35:12;;;;;;;9.88;2.50;;;;;;;10.49;95.11;101516.34;5030238;28;20377;-47
2022/09/25 01:37:49;;;;;;;8.45;2.42;;;;;;;10.41;94.72;101514.22;5029866;28;20112;-50
2022/09/25 01:40:32;;;;;;;9.07;2.70;;;;;;;10.41;94.58;101516.88;5027700;28;20040;-47
2022/09/25 01:43:13;;;;;;;4.00;1.95;;;;;;;10.36;94.97;101513.66;5023543;28;20040;-48
2022/09/25 01:46:06;;;;;;;12.73;2.83;;;;;;;10.35;95.04;101528.72;5029520;28;20029;-48
2022/09/25 01:48:33;;;;;;;10.25;2.60;;;;;;;10.32;94.55;101531.56;5025813;28;20132;-47
2022/09/25 01:51:03;;;;;;;8.98;2.40;;;;;;;10.25;95.49;101524.91;5029651;28;20033;-49
2022/09/25 01:53:38;;;;;;;8.70;2.25;;;;;;;10.24;95.29;101533.84;5019963;28;20254;-48
2022/09/25 01:56:17;;;;;;;10.45;3.00;;;;;;;10.21;95.36;101533.16;5010254;28;20033;-48
2022/09/25 01:58:55;;;;;;;6.25;2.42;;;;;;;10.20;95.17;101535.00;5010007;28;20038;-48
2022/09/25 02:01:26;;;;;;;10.23;2.88;;;;;;;10.10;94.54;101532.06;5007920;28;20034;-47
2022/09/25 02:03:57;;;;;;;8.02;2.42;;;;;;;10.12;95.31;101531.97;5000250;28;20085;-48
2022/09/25 02:06:23;;;;;;;9.15;2.53;;;;;;;10.11;94.82;101528.47;5009509;28;20105;-50
2022/09/25 02:08:54;;;;;;;9.18;2.55;;;;;;;10.08;94.89;101525.16;5010066;28;20037;-46
2022/09/25 02:11:21;;;;;;;6.50;2.47;;;;;;;10.04;94.16;101532.44;5009509;28;20034;-48
2022/09/25 02:13:52;;;;;;;9.15;2.63;;;;;;;10.00;94.43;101528.28;5009795;28;20088;-48
2022/09/25 02:16:42;;;;;;;7.88;2.90;;;;;;;10.06;94.47;101533.22;5010139;28;20030;-46
2022/09/25 02:22:13;;;;;;;5.57;2.35;;;;;;;9.93;94.01;101519.88;5009917;28;20490;-50
2022/09/25 02:24:47;;;;;;;11.55;2.80;;;;;;;9.89;94.69;101522.81;5009943;28;20032;-49
2022/09/25 02:27:13;;;;;;;6.32;2.50;;;;;;;9.88;94.61;101524.63;5009561;28;20315;-50
2022/09/25 02:29:39;;;;;;;8.32;2.70;;;;;;;9.79;94.43;101520.75;5009927;28;20342;-48
2022/09/25 02:32:08;;;;;;;8.18;2.53;;;;;;;9.79;94.26;101533.13;5010268;28;20033;-50
2022/09/25 02:34:34;;;;;;;7.40;2.78;;;;;;;9.73;94.19;101525.56;5010193;28;20030;-51
2022/09/25 02:36:59;;;;;;;9.32;2.40;;;;;;;9.72;94.86;101521.22;5009299;28;20460;-49
2022/09/25 02:39:28;;;;;;;9.75;2.30;;;;;;;9.70;94.76;101525.75;5009375;28;20026;-49
2022/09/25 02:42:12;;;;;;;8.30;2.30;;;;;;;9.71;94.87;101525.66;5009916;28;20113;-51
2022/09/25 02:44:46;;;;;;;7.53;2.20;;;;;;;9.66;94.07;101526.88;5007308;28;20115;-50
2022/09/25 02:47:38;;;;;;;8.75;2.47;;;;;;;9.65;94.11;101528.69;5009492;28;20375;-50
2022/09/25 02:50:29;;;;;;;9.95;2.90;;;;;;;9.57;94.26;101526.50;5009571;28;20096;-46
2022/09/25 02:53:06;;;;;;;6.30;3.03;;;;;;;9.54;94.07;101531.16;5006226;28;20053;-50
2022/09/25 02:55:42;;;;;;;7.32;2.45;;;;;;;9.44;94.25;101520.25;4997761;28;20033;-51
2022/09/25 02:58:15;;;;;;;5.45;2.35;;;;;;;9.44;94.79;101515.81;5010079;28;20388;-49
2022/09/25 03:00:45;;;;;;;8.93;2.70;;;;;;;9.38;95.03;101508.22;5009372;28;20464;-50
2022/09/25 03:03:12;;;;;;;;;;;;;;;9.50;93.99;101505.78;5014084;28;20026;-48
2022/09/25 03:05:38;;;;;;;5.20;2.75;;;;;;;9.36;94.40;101504.81;5013125;28;19913;-48
2022/09/25 03:10:48;;;;;;;8.85;2.88;;;;;;;9.26;94.08;101507.19;5013379;28;20526;-47
2022/09/25 03:13:16;;;;;;;5.22;2.80;;;;;;;9.25;95.18;101517.88;5009726;28;20042;-48
2022/09/25 03:15:45;;;;;;;10.87;3.47;;;;;;;9.22;95.25;101515.41;5005021;28;20461;-48
2022/09/25 03:18:13;;;;;;;8.20;3.22;;;;;;;9.20;95.02;101506.69;5012627;28;20050;-47
2022/09/25 03:20:39;;;;;;;8.23;3.30;;;;;;;9.17;94.81;101512.19;5013386;28;20034;-47
2022/09/25 03:23:04;;;;;;;10.07;4.13;;;;;;;9.14;95.13;101518.50;5012209;28;20030;-50
2022/09/25 03:25:29;;;;;;;8.75;3.28;;;;;;;9.12;95.17;101522.19;5012838;28;20104;-48
2022/09/25 03:27:55;;;;;;;12.55;3.53;;;;;;;9.04;94.59;101514.69;5012595;28;20034;-48
2022/09/25 03:30:20;;;;;;;11.65;4.07;;;;;;;9.01;95.31;101518.41;5013039;28;20022;-50
2022/09/25 03:32:45;;;;;;;8.93;3.90;;;;;;;8.99;94.74;101516.78;5012206;28;20514;-50
2022/09/25 03:35:10;;;;;;;10.98;4.88;;;;;;;8.94;95.02;101524.13;5012754;28;20025;-48
2022/09/25 03:37:36;;;;;;;14.98;4.88;;;;;;;8.90;94.91;101528.78;5012068;28;20499;-46
2022/09/25 03:40:01;;;;;;;10.35;4.75;;;;;;;8.87;94.85;101524.50;5012243;28;20037;-50
2022/09/25 03:42:27;;;;;;;9.52;5.38;;;;;;;8.88;95.59;101520.06;5008829;28;20479;-48
2022/09/25 03:44:52;;;;;;;9.07;5.68;;;;;;;8.87;95.65;101505.94;5012801;28;20109;-48
2022/09/25 03:47:18;;;;;;;10.77;6.28;;;;;;;8.85;95.73;101512.28;5007357;28;20514;-47
2022/09/25 03:49:43;;;;;;;9.95;5.97;;;;;;;8.81;95.43;101511.63;5012462;28;20104;-47
2022/09/25 03:52:13;;;;;;;12.82;6.43;;;;;;;8.81;95.53;101518.69;5018342;28;20050;-47
2022/09/25 03:54:38;;;;;;;11.95;6.75;;;;;;;8.73;95.76;101527.09;5012569;28;20018;-46
2022/09/25 03:57:04;;;;;;;13.23;7.60;;;;;;;8.72;95.75;101519.25;5012152;28;20045;-47
2022/09/25 03:59:30;;;;;;;18.25;7.82;;;;;;;8.68;96.25;101527.38;5011782;28;20022;-46
2022/09/25 04:01:55;;;;;;;16.13;7.68;;;;;;;8.72;96.27;101524.53;5011843;28;20029;-45
2022/09/25 04:04:21;;;;;;;14.25;7.93;;;;;;;8.67;95.66;101522.16;5011924;28;20512;-47
2022/09/25 04:06:47;;;;;;;10.98;7.10;;;;;;;8.66;96.10;101520.44;5011098;28;20472;-47
2022/09/25 04:09:12;;;;;;;11.85;8.10;;;;;;;8.60;95.79;101518.16;5012169;28;20038;-48
2022/09/25 04:11:37;;;;;;;11.60;7.93;;;;;;;8.59;96.30;101519.09;5011763;28;20033;-47
2022/09/25 04:14:03;;;;;;;11.52;7.43;;;;;;;8.56;96.39;101520.13;5011112;28;20034;-48
2022/09/25 04:16:29;;;;;;;13.13;7.70;;;;;;;8.53;96.13;101515.00;5012020;28;20034;-48
2022/09/25 04:18:54;;;;;;;12.20;8.10;;;;;;;8.53;96.87;101512.38;5011844;28;20022;-47
2022/09/25 04:21:19;;;;;;;14.07;7.65;;;;;;;8.55;96.78;101514.94;5010998;28;20022;-50
2022/09/25 04:26:29;;;;;;;13.35;7.90;;;;;;;8.47;96.02;101510.06;5009522;28;20033;-47
2022/09/25 04:28:54;;;;;;;11.38;7.63;;;;;;;8.46;96.12;101503.94;5011589;28;20026;-47
2022/09/25 04:31:20;;;;;;;12.82;8.13;;;;;;;8.45;96.61;101509.31;5010770;28;20022;-47
2022/09/25 04:33:45;;;;;;;11.32;7.93;;;;;;;8.38;96.45;101511.41;5011495;28;20025;-48
2022/09/25 04:36:10;;;;;;;15.48;8.45;;;;;;;8.39;97.01;101514.91;5010440;28;20053;-48
2022/09/25 04:38:35;;;;;;;13.95;8.48;;;;;;;8.38;96.68;101518.50;5008479;28;20109;-47
2022/09/25 04:41:01;;;;;;;12.98;8.50;;;;;;;8.30;96.06;101517.13;5009023;28;20112;-50
2022/09/25 04:43:31;;;;;;;16.90;8.20;;;;;;;8.27;96.32;101516.44;5008959;28;20112;-50
2022/09/25 04:46:00;;;;;;;;;;;;;;;8.36;95.62;101513.31;5011861;28;20025;-48
2022/09/25 04:48:25;;;;;;;13.50;8.43;;;;;;;8.24;95.78;101514.81;5007120;28;19916;-49
2022/09/25 04:50:51;;;;;;;10.98;8.20;;;;;;;8.23;95.94;101507.84;5009456;28;20025;-49
2022/09/25 04:53:17;;;;;;;13.23;8.35;;;;;;;8.22;96.69;101507.91;5011437;28;20513;-47
2022/09/25 04:55:44;;;;;;;12.60;8.60;;;;;;;8.21;97.28;101508.84;5010724;28;20148;-47
2022/09/25 04:58:10;;;;;;;13.48;8.38;;;;;;;8.18;97.23;101501.94;5010788;28;20583;-49
2022/09/25 05:00:37;;;;;;;12.38;9.15;;;;;;;8.19;97.11;101500.16;5010932;28;20022;-49
2022/09/25 05:03:03;;;;;;;13.45;8.75;;;;;;;8.13;96.85;101507.50;5010810;28;20029;-48
2022/09/25 05:05:29;;;;;;;14.68;8.70;;;;;;;8.09;97.28;101502.44;5009797;28;20080;-49
2022/09/25 05:07:57;;;;;;;12.30;8.75;;;;;;;8.08;96.56;101498.13;5010668;28;20030;-49
2022/09/25 05:10:26;;;;;;;12.07;8.25;;;;;;;8.06;97.20;101499.97;5011146;28;20464;-47
2022/09/25 05:13:02;;;;;;;12.93;8.45;;;;;;;8.03;96.88;101501.00;5010604;28;20030;-49
2022/09/25 05:15:30;;;;;;;12.50;7.80;;;;;;;7.99;96.65;101503.91;5010864;28;20034;-48
2022/09/25 05:18:14;;;;;;;13.57;8.10;;;;;;;8.02;96.66;101504.59;5005024;28;20026;-48
2022/09/25 05:20:39;;;;;;;13.18;8.95;;;;;;;8.00;96.86;101495.88;5006527;28;20038;-47
2022/09/25 05:23:05;;;;;;;13.75;8.35;;;;;;;7.99;96.28;101498.63;5009773;28;20033;-47
2022/09/25 05:25:31;;;;;;;11.27;8.40;;;;;;;7.97;96.68;101498.69;5009829;28;20104;-48
2022/09/25 05:27:58;;;;;;;12.50;8.80;;;;;;;7.92;96.93;101488.38;5009676;28;20022;-48
2022/09/25 05:30:24;;;;;;;11.50;8.52;;;;;;;7.91;96.83;101496.38;5010862;28;20029;-50
2022/09/25 05:32:51;;;;;;;16.55;8.93;;;;;;;7.89;96.47;101490.31;5009111;28;20388;-48
2022/09/25 05:35:19;;;;;;;11.75;8.50;;;;;;;7.89;96.25;101492.97;5010582;28;20471;-48
2022/09/25 05:37:44;;;;;;;12.13;8.50;;;;;;;7.89;96.61;101496.50;5007132;28;20101;-48
2022/09/25 05:40:10;;;;;;;12.85;7.85;;;;;;;7.89;97.19;101499.13;5008280;28;20168;-47
2022/09/25 05:42:35;;;;;;;12.88;8.35;;;;;;;7.83;96.92;101496.81;5001200;28;20049;-48
2022/09/25 05:45:00;;;;;;;13.68;8.65;;;;;;;7.85;96.91;101500.22;5014443;28;20030;-48
2022/09/25 05:47:25;;;;;;;13.05;8.50;;;;;;;7.85;96.91;101497.59;5017008;28;20038;-47
2022/09/25 05:49:51;;;;;;;15.93;8.52;;;;;;;7.84;96.71;101506.44;5011390;28;20025;-48
2022/09/25 05:52:16;;;;;;;16.80;9.30;;;;;;;7.81;97.23;101498.69;5009894;28;20172;-50
2022/09/25 05:54:41;;;;;;;14.70;8.82;;;;;;;7.79;97.27;101511.13;5021913;28;20041;-51
2022/09/25 05:57:06;;;;;;;17.17;8.68;;;;;;;7.78;97.78;101510.28;5010510;28;20022;-52
2022/09/25 05:59:33;;;;;;;13.27;8.50;;;;;;;7.78;98.09;101512.94;5009947;28;20055;-50
2022/09/25 06:01:58;;;;;;;9.23;7.90;;;;;;;7.78;98.22;101518.22;5010589;28;20058;-50
2022/09/25 06:04:24;;;;;;;14.70;8.68;;;;;;;7.76;98.22;101517.44;5004644;28;20489;-51
2022/09/25 06:06:51;;;;;;;11.07;8.18;;;;;;;7.76;98.13;101522.75;5013392;28;20033;-50
2022/09/25 06:09:16;;;;;;;12.30;8.40;;;;;;;7.74;97.36;101521.97;5016690;28;20041;-50
2022/09/25 06:11:46;;;;;;;14.38;8.48;;;;;;;7.78;98.52;101520.03;5009436;28;20029;-51
2022/09/25 06:14:12;;;;;;;11.63;8.52;;;;;;;7.80;98.91;101523.44;5009032;28;20041;-50
2022/09/25 06:16:37;;;;;;;14.63;9.10;;;;;;;7.77;98.83;101519.16;5015345;28;20034;-53
2022/09/25 06:19:03;;;;;;;11.18;8.70;;;;;;;7.77;98.73;101513.00;5015622;28;20054;-50
2022/09/25 06:21:28;;;;;;;12.85;8.85;;;;;;;7.78;99.03;101509.44;5010510;28;20025;-50
2022/09/25 06:23:54;;;;;;;12.98;8.93;;;;;;;7.81;99.23;101511.03;5006024;28;20041;-49
2022/09/25 06:26:20;;;;;;;13.13;9.18;;;;;;;7.80;99.14;101518.13;5009865;28;20491;-49
2022/09/25 06:28:45;;;;;;;13.35;9.40;;;;;;;7.86;100.00;101514.28;5010739;28;20045;-50
2022/09/25 06:31:10;;;;;;;15.45;10.75;;;;;;;7.88;100.00;101515.94;5009271;28;20108;-51
2022/09/25 06:33:36;;;;;;;14.55;9.85;;;;;;;7.89;100.00;101516.78;5008290;28;20151;-49
2022/09/25 06:36:04;;;;;;;12.18;9.38;;;;;;;7.89;100.00;101512.38;5009699;28;20091;-51
2022/09/25 06:38:32;;;;;;;14.20;10.13;;;;;;;7.95;100.00;101514.66;5013802;28;20029;-49
2022/09/25 06:40:57;;;;;;;17.70;10.55;;;;;;;7.96;100.00;101516.38;5015475;28;20428;-50
2022/09/25 06:43:23;;;;;;;13.95;9.60;;;;;;;8.00;100.00;101513.56;5015112;28;20153;-53
2022/09/25 06:45:49;;;;;;;15.93;10.27;;;;;;;8.02;100.00;101514.31;5013009;28;20079;-48
2022/09/25 06:48:15;;;;;;;16.00;10.05;;;;;;;8.06;100.00;101515.84;5012877;28;20499;-50
2022/09/25 06:50:46;;;;;;;17.77;10.75;;;;;;;8.03;100.00;101511.59;5015893;28;20054;-50
2022/09/25 06:53:13;;;;;;;16.48;10.48;;;;;;;8.12;100.00;101521.66;5011647;28;20104;-51
2022/09/25 06:55:38;;;;;;;18.15;11.30;;;;;;;8.15;100.00;101528.56;5011328;28;20085;-50
2022/09/25 06:58:05;;;;;;;19.25;11.32;;;;;;;8.23;100.00;101528.16;5017549;28;20552;-48
2022/09/25 07:00:32;;;;;;;19.33;11.43;;;;;;;8.25;100.00;101529.78;5018306;28;20092;-51
2022/09/25 07:05:43;;;;;;;18.77;11.60;;;;;;;8.38;100.00;101535.25;5014064;28;20099;-53
2022/09/25 07:08:11;;;;;;;26.95;12.93;;;;;;;8.43;100.00;101529.72;5009655;28;20040;-51
2022/09/25 07:10:37;;;;;;;20.67;13.00;;;;;;;8.50;100.00;101531.06;5014225;28;20069;-50
2022/09/25 07:13:03;;;;;;;19.17;12.02;;;;;;;8.56;100.00;101532.50;5011881;28;20064;-52
2022/09/25 07:15:29;;;;;;;22.98;13.23;;;;;;;8.62;100.00;101527.72;5013511;28;20454;-52
2022/09/25 07:17:54;;;;;;;20.40;13.40;;;;;;;8.72;100.00;101532.50;5013601;28;20091;-51
2022/09/25 07:20:21;;;;;;;22.95;13.95;;;;;;;8.83;100.00;101530.09;5011278;28;20161;-50
2022/09/25 07:22:46;;;;;;;22.17;13.35;;;;;;;8.93;100.00;101533.03;5012931;28;20148;-47
2022/09/25 07:25:13;;;;;;;20.95;13.20;;;;;;;9.10;100.00;101537.34;5017210;28;20058;-51
2022/09/25 07:27:38;;;;;;;21.23;12.10;;;;;;;9.23;100.00;101543.63;5009456;28;20384;-47
2022/09/25 07:30:05;;;;;;;22.27;11.95;;;;;;;9.36;100.00;101538.41;5012431;28;20092;-52
2022/09/25 07:32:30;;;;;;;19.45;12.30;;;;;;;9.54;100.00;101539.09;5010713;28;20026;-49
2022/09/25 07:34:57;;;;;;;16.75;10.70;;;;;;;9.71;100.00;101540.72;5012790;28;20037;-48
2022/09/25 07:37:23;;;;;;;15.52;11.18;;;;;;;9.91;100.00;101548.31;5011073;28;20088;-48
2022/09/25 07:39:49;;;;;;;14.73;9.95;;;;;;;10.15;100.00;101540.59;5016683;28;20049;-48
2022/09/25 07:42:15;;;;;;;14.88;9.98;;;;;;;10.34;100.00;101542.97;5012032;28;20041;-49
2022/09/25 07:44:41;;;;;;;12.60;9.05;;;;;;;10.59;100.00;101540.50;5015308;28;20099;-49
2022/09/25 07:47:07;;;;;;;12.68;9.13;;;;;;;10.81;100.00;101539.94;5013300;28;20042;-49
2022/09/25 07:49:33;;;;;;;10.98;8.52;;;;;;;10.92;100.00;101537.41;5013362;28;20033;-50
2022/09/25 07:52:00;;;;;;;14.80;8.40;;;;;;;11.19;100.00;101547.13;5010023;28;20085;-49
2022/09/25 07:54:25;;;;;;;9.82;7.60;;;;;;;11.34;100.00;101537.25;5012969;28;20034;-51
2022/09/25 07:56:50;;;;;;;14.20;7.78;;;;;;;11.45;100.00;101538.22;5013023;28;20022;-51
2022/09/25 07:59:16;;;;;;;9.55;6.68;;;;;;;11.62;99.36;101528.22;5012730;28;20391;-48
2022/09/25 08:01:41;;;;;;;11.93;6.53;;;;;;;11.76;98.14;101527.25;5012373;28;20029;-47
2022/09/25 08:04:06;;;;;;;13.07;6.88;;;;;;;11.90;98.66;101529.78;5010344;28;20072;-49
2022/09/25 08:06:37;;;;;;;9.77;6.50;;;;;;;12.05;97.71;101522.53;5011543;28;20028;-49
2022/09/25 08:09:02;;;;;;;9.43;6.53;;;;;;;12.21;96.46;101531.13;5011635;28;20030;-48
2022/09/25 08:11:28;;;;;;;9.38;5.95;;;;;;;12.52;96.25;101534.22;5007083;28;20041;-52
2022/09/25 08:13:53;;;;;;;8.38;6.13;;;;;;;12.71;94.53;101533.69;5015486;28;20014;-53
2022/09/25 08:16:21;;;;;;;9.05;6.07;;;;;;;12.95;93.05;101525.66;5025128;28;20122;-52
2022/09/25 08:18:47;;;;;;;7.38;5.18;;;;;;;13.17;92.40;101528.50;5007168;28;20397;-52
2022/09/25 08:21:15;;;;;;;10.02;5.20;;;;;;;13.40;91.99;101521.44;5006977;28;20488;-51
2022/09/25 08:23:42;;;;;;;8.63;4.50;;;;;;;13.68;90.59;101528.13;5009895;28;20488;-51
2022/09/25 08:26:08;;;;;;;7.50;4.70;;;;;;;13.93;89.92;101531.53;5006897;28;20042;-51
2022/09/25 08:28:34;;;;;;;6.00;4.28;;;;;;;14.15;88.25;101528.81;5008672;28;20030;-51
2022/09/25 08:31:03;;;;;;;7.00;3.90;;;;;;;14.28;86.22;101526.00;5007025;28;20058;-52
2022/09/25 08:33:28;;;;;;;;;;;;;;;14.34;90.94;101522.81;5008490;28;20030;-53
2022/09/25 08:35:59;;;;;;;10.73;3.67;;;;;;;14.62;85.57;101520.56;5007423;28;19963;-52
2022/09/25 08:38:25;;;;;;;10.00;4.18;;;;;;;14.81;85.54;101522.56;5007351;28;20058;-52
2022/09/25 08:40:57;;;;;;;6.20;3.15;;;;;;;15.04;83.37;101523.31;5008893;28;20045;-51
2022/09/25 08:43:25;;;;;;;7.13;3.03;;;;;;;15.12;82.20;101528.00;5006982;28;20112;-53
2022/09/25 08:51:32;;;;;;;6.70;1.98;;;;;;;15.61;77.89;101521.09;5006124;28;20399;-53
2022/09/25 08:53:58;;;;;;;4.60;2.17;;;;;;;15.84;76.15;101531.66;5006942;28;20042;-52
2022/09/25 08:56:27;;;;;;;8.90;2.15;;;;;;;16.05;74.82;101529.75;5004004;28;20057;-53
2022/09/25 08:59:20;;;;;;;5.68;2.20;;;;;;;16.19;78.97;101525.84;5006027;28;20053;-54
2022/09/25 09:01:51;;;;;;;6.50;2.33;;;;;;;16.31;75.09;101523.06;5005477;28;20543;-53
2022/09/25 09:04:40;;;;;;;8.05;2.08;;;;;;;16.38;77.04;101522.34;5004596;28;20053;-53
2022/09/25 09:07:18;;;;;;;5.15;1.98;;;;;;;16.50;75.52;101512.31;5005844;28;20045;-52
2022/09/25 09:09:53;;;;;;;9.10;2.40;;;;;;;16.46;73.56;101522.50;5004236;28;20041;-54
2022/09/25 09:12:30;;;;;;;6.28;2.20;;;;;;;16.67;72.80;101513.50;5004545;28;20041;-52
2022/09/25 09:15:10;;;;;;;5.30;2.25;;;;;;;16.87;74.04;101516.16;5008675;28;20491;-53
2022/09/25 09:17:40;;;;;;;8.35;2.25;;;;;;;17.09;71.98;101513.19;5004497;28;20026;-53
2022/09/25 09:20:15;;;;;;;6.75;1.88;;;;;;;17.21;71.78;101511.19;5006974;28;20025;-53
2022/09/25 09:22:46;;;;;;;7.00;1.85;;;;;;;17.31;69.84;101512.00;5002820;28;20037;-53
2022/09/25 09:25:34;;;;;;;5.88;1.98;;;;;;;17.47;72.24;101511.41;5003054;28;20049;-53
2022/09/25 09:28:24;;;;;;;3.67;1.90;;;;;;;17.73;73.05;101508.88;5007900;28;20096;-52
2022/09/25 09:31:05;;;;;;;7.88;2.72;;;;;;;17.77;72.12;101512.16;5005002;28;20073;-52
2022/09/25 09:33:56;;;;;;;10.45;2.15;;;;;;;17.65;68.68;101511.50;5006286;28;20025;-53
2022/09/25 09:36:32;;;;;;;4.72;1.77;;;;;;;17.51;69.89;101517.31;5005768;28;20053;-52
2022/09/25 09:39:12;;;;;;;6.97;1.65;;;;;;;17.48;68.99;101518.44;5006592;28;20096;-52
2022/09/25 09:42:00;;;;;;;6.53;1.90;;;;;;;17.48;69.99;101515.78;5005785;28;20039;-52
2022/09/25 09:44:25;;;;;;;5.38;1.70;;;;;;;17.36;67.27;101509.72;5005180;28;20041;-53
2022/09/25 09:47:06;;;;;;;6.13;1.70;;;;;;;17.34;67.98;101505.50;5006071;28;20050;-50
2022/09/25 09:49:50;;;;;;;6.07;1.80;;;;;;;17.55;69.53;101508.84;5007531;28;20762;-52
2022/09/25 09:52:20;;;;;;;6.95;2.30;;;;;;;17.61;65.85;101498.50;5002109;28;20053;-52
2022/09/25 09:54:54;;;;;;;7.80;2.10;;;;;;;17.77;66.66;101496.03;5006865;28;20169;-52
2022/09/25 09:57:25;;;;;;;4.57;1.27;;;;;;;17.61;62.12;101502.03;5006108;28;20052;-51
2022/09/25 10:00:12;;;;;;;18.73;5.60;;;;;;;17.68;67.06;101495.03;5011250;28;20804;-52
2022/09/25 10:02:48;;;;;;;7.10;1.55;;;;;;;17.69;62.47;101493.22;5006431;28;20423;-52
2022/09/25 10:05:24;;;;;;;7.78;1.85;;;;;;;17.91;66.02;101494.69;5007170;28;20026;-51
2022/09/25 10:07:50;;;;;;;4.07;1.27;;;;;;;18.08;61.67;101499.25;5006155;28;20056;-53
2022/09/25 10:10:17;;;;;;;4.30;1.17;;;;;;;18.11;61.52;101492.75;5013369;28;20443;-52
2022/09/25 10:12:49;;;;;;;6.43;1.52;;;;;;;18.16;61.16;101492.28;5012581;28;20064;-51
2022/09/25 10:15:31;;;;;;;4.45;1.25;;;;;;;18.24;62.39;101493.22;5012697;28;20044;-53
2022/09/25 10:17:59;;;;;;;5.65;2.10;;;;;;;18.33;60.60;101486.06;5006103;28;20046;-52
2022/09/25 10:20:32;;;;;;;7.50;1.37;;;;;;;18.46;59.33;101489.22;5003919;28;20042;-51
2022/09/25 10:23:01;;;;;;;5.90;1.23;;;;;;;18.41;58.18;101493.38;5005106;28;20045;-53
2022/09/25 10:25:39;;;;;;;6.35;1.98;;;;;;;18.48;59.91;101479.19;5013030;28;20487;-52
2022/09/25 10:28:22;;;;;;;3.38;1.15;;;;;;;18.75;60.86;101482.78;5010525;28;20507;-52
2022/09/25 10:30:48;;;;;;;4.03;1.40;;;;;;;19.06;56.38;101476.97;5009979;28;20041;-53
2022/09/25 10:33:24;;;;;;;6.80;1.30;;;;;;;19.01;58.26;101473.91;5013329;28;20054;-50
2022/09/25 10:35:53;;;;;;;6.15;1.55;;;;;;;18.93;56.30;101473.84;5010788;28;20092;-52
2022/09/25 10:38:36;;;;;;;7.22;1.60;;;;;;;18.75;58.30;101471.16;5013641;28;20038;-51
2022/09/25 10:41:11;;;;;;;5.03;1.52;;;;;;;18.76;58.11;101470.16;5012915;28;20112;-51
2022/09/25 10:43:51;;;;;;;4.10;1.17;;;;;;;18.85;60.21;101470.09;5005680;28;20578;-51
2022/09/25 10:52:04;;;;;;;4.60;1.13;;;;;;;18.95;55.66;101478.09;5027887;28;20084;-48
2022/09/25 10:54:29;;;;;;;4.65;1.17;;;;;;;19.10;55.55;101480.19;5031909;28;20034;-50
2022/09/25 10:56:55;;;;;;;3.17;1.17;;;;;;;19.31;53.75;101469.06;5031406;28;20050;-50
2022/09/25 10:59:22;;;;;;;7.32;1.30;;;;;;;19.56;54.54;101461.94;5033730;28;20072;-49
2022/09/25 11:01:50;;;;;;;9.77;3.72;;;;;;;19.66;53.68;101472.59;5032684;28;20454;-49
2022/09/25 11:04:20;;;;;;;27.08;12.15;;;;;;;19.74;55.07;101475.31;5032874;28;20068;-51
2022/09/25 11:06:51;;;;;;;5.35;1.58;;;;;;;19.57;52.01;101472.56;5030226;28;20030;-50
2022/09/25 11:09:20;;;;;;;4.22;1.08;;;;;;;19.48;53.02;101475.38;5032389;28;20006;-49
2022/09/25 11:11:48;;;;;;;3.67;1.10;;;;;;;19.33;54.30;101467.88;5032678;28;20149;-51
2022/09/25 11:14:31;;;;;;;3.20;1.25;;;;;;;19.29;51.79;101473.75;5026082;28;20029;-51
2022/09/25 11:16:58;;;;;;;3.10;0.82;;;;;;;19.29;53.83;101476.44;5025253;28;20085;-52
2022/09/25 11:19:28;;;;;;;4.85;1.35;;;;;;;19.27;53.34;101473.91;5014465;28;20096;-49
2022/09/25 11:22:25;;;;;;;4.65;1.13;;;;;;;19.37;55.45;101471.94;5015290;28;20483;-51
2022/09/25 11:25:13;;;;;;;3.50;1.13;;;;;;;19.52;54.40;101466.81;5017356;28;20105;-51
2022/09/25 11:27:54;;;;;;;1.70;0.80;;;;;;;19.67;55.03;101466.19;5018354;28;20022;-50
2022/09/25 11:30:21;;;;;;;2.83;0.80;;;;;;;19.60;50.67;101466.84;5020052;28;20033;-50
2022/09/25 11:32:50;;;;;;;4.55;0.90;;;;;;;19.84;51.77;101464.44;5020862;28;20034;-48
2022/09/25 11:35:43;;;;;;;7.60;1.48;;;;;;;20.08;54.57;101451.00;5023197;28;20022;-51
2022/09/25 11:41:30;;;;;;;4.30;1.10;;;;;;;19.81;50.52;101454.81;5019199;28;20053;-49
2022/09/25 11:44:07;;;;;;;5.88;1.02;;;;;;;19.95;49.36;101456.91;5020164;28;20029;-47
2022/09/25 11:46:38;;;;;;;4.50;0.70;;;;;;;20.02;49.45;101440.91;5020677;28;20029;-49
2022/09/25 11:49:19;;;;;;;4.78;0.95;;;;;;;19.91;50.74;101441.19;5019783;28;20030;-48
2022/09/25 11:52:04;;;;;;;3.95;1.40;;;;;;;20.10;51.16;101440.06;5017035;28;20070;-49
2022/09/25 11:54:43;;;;;;;4.10;0.80;;;;;;;20.25;51.62;101433.03;5016958;28;20045;-51
2022/09/25 11:57:12;;;;;;;3.83;0.70;;;;;;;20.13;47.53;101432.50;5011943;28;20388;-51
2022/09/25 12:00:20;;;;;;;6.55;1.13;;;;;;;20.06;52.43;101428.75;5012032;28;20388;-49
2022/09/25 12:03:05;;;;;;;3.15;1.00;;;;;;;19.80;51.40;101428.88;4989389;28;20038;-52
2022/09/25 12:05:51;;;;;;;5.00;1.20;;;;;;;19.88;52.40;101425.34;5011436;28;20042;-48
2022/09/25 12:08:32;;;;;;;4.20;0.95;;;;;;;19.77;51.16;101427.34;5011898;28;20117;-50